Main page
METAR-TAF:

METAR-TAF

Airports :

Lancaster Airport

Lancaster, Pennsylvania, United States

latitude: 40-07-13N, longitude: 076-17-40W, elevation: 403 ft

Current weather observation

The report was made 32 minutes ago, at 17:53 UTC
Wind 28 mph from the West with gusts up to 35 mph
Temperature 41°F
Humidity 38%
Pressure 29.70 in. Hg
Visibility: 10 miles
Scattered clouds at a height of 4800 ft

METAR: KLNS 271753Z 28024G30KT 10SM SCT048 05/M08 A2970 RMK AO2 PK WND 28034/1703 SLP060 T00501083 10050 20011 51013

Time: 13:25 (18:25 UTC)

Forecast

The report was made 47 minutes ago, at 17:38 UTC
Forecast valid from 27 at 18 UTC to 28 at 18 UTC
Wind 29 mph from the West with gusts up to 40 mph
Visibility: 6 miles
Broken clouds at a height of 5000 ft
From 28 at 0400 UTC
Wind 17 mph from the West with gusts up to 29 mph
Visibility: 6 miles
Scattered clouds at a height of 5000 ft

TAF: KLNS 271738Z 2718/2818 28025G35KT P6SM BKN050 FM280400 28015G25KT P6SM SCT050

Weather observations and forecasts of more than 4000 airports (METAR and TAF reports).

The available stations are represented by yellow and red dots on the map.

Hover mouse over dot to see the name of the station.

Then click to see weather observations and forecasts.

To change the map : click on the green buttons with a black cross to zoom in, on the green button with a dash to zoom out, or on the green arrows for adjacent maps.


METAR-TAF: